No.1 Daieimaru — JD2847 — position and weather

sailwx.info

Track history (hours):
 
Tides and Currents Weather Stations Pressure Air Temp Water Temp Dewpoint Dewpoint Depression Visibility Wind Speed Wind Dir Waves Ship Positions

No.1 Daieimaru

Last reported at 2017-Oct-20 01:58 UTC. Time now 2017-Oct-22 19:00 UTC.
Position N 35°37' E 139°49'.

Length 63 m; draft 4.1 m.

MMSI: 431000816.

Date/timePositionNaut miles runAvg speedWind from/ knotsBaromVisibWave heightAir tempDewpointWater temp
2017-Oct-20 01:58N 35°37' E 139°49'6 9.7
2017-Oct-20 01:22N 35°31' E 139°51'3 9.9
2017-Oct-20 01:01N 35°29' E 139°48'510.1
2017-Oct-20 00:31N 35°25' E 139°43'5 9.9
2017-Oct-20 00:00N 35°21' E 139°40'1 2.6
2017-Oct-19 23:30N 35°20' E 139°40'0 0.0
2017-Oct-19 23:00N 35°20' E 139°40'0 0.1
2017-Oct-19 22:30N 35°20' E 139°40'0 0.1
2017-Oct-19 22:00N 35°20' E 139°40'0 0.0
2017-Oct-19 21:30N 35°20' E 139°40'0 0.1
2017-Oct-19 21:01N 35°20' E 139°40'0 0.1
2017-Oct-19 20:31N 35°20' E 139°40'0 0.0
2017-Oct-19 20:00N 35°20' E 139°40'0 0.0
2017-Oct-19 19:30N 35°20' E 139°40'0 0.0
2017-Oct-19 19:00N 35°20' E 139°40'0 0.0
2017-Oct-19 18:31N 35°20' E 139°40'0 0.1
2017-Oct-19 18:01N 35°20' E 139°40'0 0.1
2017-Oct-19 17:30N 35°20' E 139°40'0 0.0
2017-Oct-19 17:01N 35°20' E 139°40'0 0.0
2017-Oct-19 16:31N 35°20' E 139°40'0 0.0
2017-Oct-19 16:00N 35°20' E 139°40'0 0.0
2017-Oct-19 15:31N 35°20' E 139°40'0 0.0
2017-Oct-19 15:01N 35°20' E 139°40'0 0.0
2017-Oct-19 14:30N 35°20' E 139°40'0 0.0
2017-Oct-19 14:01N 35°20' E 139°40'0 0.0
2017-Oct-19 13:30N 35°20' E 139°40'0 0.0
2017-Oct-19 13:01N 35°20' E 139°40'0 0.0
2017-Oct-19 12:31N 35°20' E 139°40'0 0.0
2017-Oct-19 12:00N 35°20' E 139°40'0 0.1
2017-Oct-19 11:30N 35°20' E 139°40'0 0.0
2017-Oct-19 11:00N 35°20' E 139°40'0 0.0
2017-Oct-19 10:31N 35°20' E 139°40'0 0.1
2017-Oct-19 10:01N 35°20' E 139°40'0 0.0
2017-Oct-19 09:31N 35°20' E 139°40'0 0.0
2017-Oct-19 09:01N 35°20' E 139°40'0 0.0
2017-Oct-19 08:30N 35°20' E 139°40'0 0.0
2017-Oct-19 08:00N 35°20' E 139°40'0 0.0
2017-Oct-19 07:30N 35°20' E 139°40'0 0.0
2017-Oct-19 07:01N 35°20' E 139°40'0 0.1
2017-Oct-19 06:31N 35°20' E 139°40'0 0.1
2017-Oct-19 06:00N 35°20' E 139°40'0 0.0
2017-Oct-19 05:31N 35°20' E 139°40'0 0.0
2017-Oct-19 05:01N 35°20' E 139°40'0 0.0
2017-Oct-19 04:30N 35°20' E 139°40'0 0.0
2017-Oct-19 04:01N 35°20' E 139°40'1 2.8
2017-Oct-19 03:30N 35°19' E 139°41'5 9.8
2017-Oct-19 03:01N 35°16' E 139°46'5 9.4
2017-Oct-19 02:31N 35°12' E 139°47'5 9.5
2017-Oct-19 02:00N 35°07' E 139°47'5 9.3
2017-Oct-19 01:30N 35°02' E 139°48'3 5.7
2017-Oct-19 01:00N 35°01' E 139°50'0 0.0
2017-Oct-19 00:31N 35°01' E 139°50'0 0.0
2017-Oct-19 00:00N 35°01' E 139°50'0 0.0
2017-Oct-18 23:31N 35°01' E 139°50'0 0.0
2017-Oct-18 23:00N 35°01' E 139°50'0 0.0
2017-Oct-18 22:31N 35°01' E 139°50'0 0.0
2017-Oct-18 22:01N 35°01' E 139°50'0 0.0
2017-Oct-18 21:30N 35°01' E 139°50'0 0.0
2017-Oct-18 21:00N 35°01' E 139°50'0 0.0
2017-Oct-18 20:30N 35°01' E 139°50'0 0.0
2017-Oct-18 20:01N 35°01' E 139°50'0 0.0
2017-Oct-18 19:31N 35°01' E 139°50'0 0.0
2017-Oct-18 19:01N 35°01' E 139°50'0 0.0
2017-Oct-18 18:30N 35°01' E 139°50'0 0.0
2017-Oct-18 18:01N 35°01' E 139°50'0 0.0
2017-Oct-18 17:31N 35°01' E 139°50'0 0.0
2017-Oct-18 17:00N 35°01' E 139°50'0 0.1
2017-Oct-18 16:31N 35°01' E 139°50'0 0.0
2017-Oct-18 15:58N 35°01' E 139°50'0 0.0
2017-Oct-18 15:31N 35°01' E 139°50'0 0.0
2017-Oct-18 15:00N 35°01' E 139°50'0 0.0
2017-Oct-18 14:00N 35°01' E 139°50'0 0.1
2017-Oct-18 13:30N 35°01' E 139°50'0 0.1
2017-Oct-18 13:00N 35°01' E 139°50'0 0.0
2017-Oct-18 12:30N 35°01' E 139°50'0 0.0
2017-Oct-18 12:01N 35°01' E 139°50'0 0.0
2017-Oct-18 11:30N 35°01' E 139°50'0 0.0
2017-Oct-18 11:00N 35°01' E 139°50'0 0.0
2017-Oct-18 10:31N 35°01' E 139°50'0 0.0
2017-Oct-18 10:01N 35°01' E 139°50'0 0.0
2017-Oct-18 09:30N 35°01' E 139°50'0 0.0
2017-Oct-18 09:01N 35°01' E 139°50'0 0.0
2017-Oct-18 08:31N 35°01' E 139°50'0 0.0
2017-Oct-18 08:00N 35°01' E 139°50'0 0.0
2017-Oct-18 07:31N 35°01' E 139°50'3 6.0
2017-Oct-18 07:00N 34°60' E 139°47'  
2017-Oct-14 10:43N 34°53' E 139°48'313.2
2017-Oct-14 10:30N 34°55' E 139°46'612.7
2017-Oct-14 10:00N 35°01' E 139°43'612.4
2017-Oct-14 09:30N 35°07' E 139°45'612.8
2017-Oct-14 09:00N 35°13' E 139°46'612.1
2017-Oct-14 08:30N 35°18' E 139°44'611.7
2017-Oct-14 08:00N 35°24' E 139°43'612.5
2017-Oct-14 07:30N 35°29' E 139°48'7 0.8
2017-Oct-13 22:39N 35°36' E 139°50'1 7.0
2017-Oct-13 22:30N 35°36' E 139°51'0 0.2
2017-Oct-13 21:45N 35°35' E 139°51'0 0.0
2017-Oct-13 21:30N 35°35' E 139°51'0 0.0
2017-Oct-13 20:58N 35°35' E 139°51'0 0.0
2017-Oct-13 20:30N 35°35' E 139°51'0 0.0
2017-Oct-13 19:55N 35°35' E 139°51'0 0.0
2017-Oct-13 19:29N 35°35' E 139°51'0 0.0
2017-Oct-13 19:00N 35°35' E 139°51'0 0.0
2017-Oct-13 18:29N 35°35' E 139°51'0 0.0
2017-Oct-13 17:55N 35°35' E 139°51'0 0.0
2017-Oct-13 17:30N 35°35' E 139°51'0 0.1
2017-Oct-13 17:00N 35°35' E 139°51'0 0.1
2017-Oct-13 16:30N 35°35' E 139°51'0 0.1
2017-Oct-13 16:00N 35°35' E 139°51'0 0.0
2017-Oct-13 15:30N 35°35' E 139°51'0 0.0
2017-Oct-13 15:00N 35°35' E 139°51'0 0.0
2017-Oct-13 14:30N 35°35' E 139°51'0 0.0
2017-Oct-13 14:00N 35°35' E 139°51'0 0.0
2017-Oct-13 13:30N 35°35' E 139°51'0 0.0
2017-Oct-13 13:00N 35°35' E 139°51'0 0.0
2017-Oct-13 12:30N 35°35' E 139°51'0 0.0
2017-Oct-13 11:57N 35°35' E 139°51'0 0.0
2017-Oct-13 11:25N 35°35' E 139°51'0 0.0
2017-Oct-13 10:50N 35°35' E 139°51'0 0.0
2017-Oct-13 10:23N 35°35' E 139°51'0 0.0
2017-Oct-13 10:00N 35°35' E 139°51'0 0.0
2017-Oct-13 09:29N 35°35' E 139°51'0 0.0
2017-Oct-13 09:00N 35°35' E 139°51'0 0.0
2017-Oct-13 08:30N 35°35' E 139°51'0 0.0
2017-Oct-13 06:47N 35°35' E 139°51'1 3.6
2017-Oct-13 06:28N 35°35' E 139°52'5 9.9
2017-Oct-13 06:00N 35°30' E 139°52'510.0
2017-Oct-13 05:29N 35°26' E 139°48'5 9.9
2017-Oct-13 05:00N 35°22' E 139°45'4 8.9
2017-Oct-13 04:30N 35°18' E 139°45'510.0
2017-Oct-13 04:00N 35°13' E 139°47'510.1
2017-Oct-13 03:30N 35°08' E 139°45'510.3
2017-Oct-13 03:00N 35°06' E 139°39'510.0
2017-Oct-13 02:30N 35°03' E 139°34'  
2017-Oct-10 04:35N 34°06' E 135°02'410.6
2017-Oct-10 04:11N 34°10' E 135°02'210.3
2017-Oct-10 04:00N 34°12' E 135°02'710.3
2017-Oct-10 03:22N 34°18' E 135°04'810.3
2017-Oct-10 02:36N 34°25' E 135°08'110.3
2017-Oct-10 02:30N 34°26' E 135°09'510.5
2017-Oct-10 02:00N 34°30' E 135°14'  
Track history (hours):
 
Tides and Currents Weather Stations Pressure Air Temp Water Temp Dewpoint Dewpoint Depression Visibility Wind Speed Wind Dir Waves Ship Positions

No.1 Daieimaru

Last reported at 2017-Oct-20 01:58 UTC. Time now 2017-Oct-22 19:00 UTC.
Position N 35°37' E 139°49'.

Length 63 m; draft 4.1 m.

MMSI: 431000816.

Date/timePositionNaut miles runAvg speedWind from/ knotsBaromVisibWave heightAir tempDewpointWater temp
2017-Oct-20 01:58N 35°37' E 139°49'6 9.7
2017-Oct-20 01:22N 35°31' E 139°51'3 9.9
2017-Oct-20 01:01N 35°29' E 139°48'510.1
2017-Oct-20 00:31N 35°25' E 139°43'5 9.9
2017-Oct-20 00:00N 35°21' E 139°40'1 2.6
2017-Oct-19 23:30N 35°20' E 139°40'0 0.0
2017-Oct-19 23:00N 35°20' E 139°40'0 0.1
2017-Oct-19 22:30N 35°20' E 139°40'0 0.1
2017-Oct-19 22:00N 35°20' E 139°40'0 0.0
2017-Oct-19 21:30N 35°20' E 139°40'0 0.1
2017-Oct-19 21:01N 35°20' E 139°40'0 0.1
2017-Oct-19 20:31N 35°20' E 139°40'0 0.0
2017-Oct-19 20:00N 35°20' E 139°40'0 0.0
2017-Oct-19 19:30N 35°20' E 139°40'0 0.0
2017-Oct-19 19:00N 35°20' E 139°40'0 0.0
2017-Oct-19 18:31N 35°20' E 139°40'0 0.1
2017-Oct-19 18:01N 35°20' E 139°40'0 0.1
2017-Oct-19 17:30N 35°20' E 139°40'0 0.0
2017-Oct-19 17:01N 35°20' E 139°40'0 0.0
2017-Oct-19 16:31N 35°20' E 139°40'0 0.0
2017-Oct-19 16:00N 35°20' E 139°40'0 0.0
2017-Oct-19 15:31N 35°20' E 139°40'0 0.0
2017-Oct-19 15:01N 35°20' E 139°40'0 0.0
2017-Oct-19 14:30N 35°20' E 139°40'0 0.0
2017-Oct-19 14:01N 35°20' E 139°40'0 0.0
2017-Oct-19 13:30N 35°20' E 139°40'0 0.0
2017-Oct-19 13:01N 35°20' E 139°40'0 0.0
2017-Oct-19 12:31N 35°20' E 139°40'0 0.0
2017-Oct-19 12:00N 35°20' E 139°40'0 0.1
2017-Oct-19 11:30N 35°20' E 139°40'0 0.0
2017-Oct-19 11:00N 35°20' E 139°40'0 0.0
2017-Oct-19 10:31N 35°20' E 139°40'0 0.1
2017-Oct-19 10:01N 35°20' E 139°40'0 0.0
2017-Oct-19 09:31N 35°20' E 139°40'0 0.0
2017-Oct-19 09:01N 35°20' E 139°40'0 0.0
2017-Oct-19 08:30N 35°20' E 139°40'0 0.0
2017-Oct-19 08:00N 35°20' E 139°40'0 0.0
2017-Oct-19 07:30N 35°20' E 139°40'0 0.0
2017-Oct-19 07:01N 35°20' E 139°40'0 0.1
2017-Oct-19 06:31N 35°20' E 139°40'0 0.1
2017-Oct-19 06:00N 35°20' E 139°40'0 0.0
2017-Oct-19 05:31N 35°20' E 139°40'0 0.0
2017-Oct-19 05:01N 35°20' E 139°40'0 0.0
2017-Oct-19 04:30N 35°20' E 139°40'0 0.0
2017-Oct-19 04:01N 35°20' E 139°40'1 2.8
2017-Oct-19 03:30N 35°19' E 139°41'5 9.8
2017-Oct-19 03:01N 35°16' E 139°46'5 9.4
2017-Oct-19 02:31N 35°12' E 139°47'5 9.5
2017-Oct-19 02:00N 35°07' E 139°47'5 9.3
2017-Oct-19 01:30N 35°02' E 139°48'3 5.7
2017-Oct-19 01:00N 35°01' E 139°50'0 0.0
2017-Oct-19 00:31N 35°01' E 139°50'0 0.0
2017-Oct-19 00:00N 35°01' E 139°50'0 0.0
2017-Oct-18 23:31N 35°01' E 139°50'0 0.0
2017-Oct-18 23:00N 35°01' E 139°50'0 0.0
2017-Oct-18 22:31N 35°01' E 139°50'0 0.0
2017-Oct-18 22:01N 35°01' E 139°50'0 0.0
2017-Oct-18 21:30N 35°01' E 139°50'0 0.0
2017-Oct-18 21:00N 35°01' E 139°50'0 0.0
2017-Oct-18 20:30N 35°01' E 139°50'0 0.0
2017-Oct-18 20:01N 35°01' E 139°50'0 0.0
2017-Oct-18 19:31N 35°01' E 139°50'0 0.0
2017-Oct-18 19:01N 35°01' E 139°50'0 0.0
2017-Oct-18 18:30N 35°01' E 139°50'0 0.0
2017-Oct-18 18:01N 35°01' E 139°50'0 0.0
2017-Oct-18 17:31N 35°01' E 139°50'0 0.0
2017-Oct-18 17:00N 35°01' E 139°50'0 0.1
2017-Oct-18 16:31N 35°01' E 139°50'0 0.0
2017-Oct-18 15:58N 35°01' E 139°50'0 0.0
2017-Oct-18 15:31N 35°01' E 139°50'0 0.0
2017-Oct-18 15:00N 35°01' E 139°50'0 0.0
2017-Oct-18 14:00N 35°01' E 139°50'0 0.1
2017-Oct-18 13:30N 35°01' E 139°50'0 0.1
2017-Oct-18 13:00N 35°01' E 139°50'0 0.0
2017-Oct-18 12:30N 35°01' E 139°50'0 0.0
2017-Oct-18 12:01N 35°01' E 139°50'0 0.0
2017-Oct-18 11:30N 35°01' E 139°50'0 0.0
2017-Oct-18 11:00N 35°01' E 139°50'0 0.0
2017-Oct-18 10:31N 35°01' E 139°50'0 0.0
2017-Oct-18 10:01N 35°01' E 139°50'0 0.0
2017-Oct-18 09:30N 35°01' E 139°50'0 0.0
2017-Oct-18 09:01N 35°01' E 139°50'0 0.0
2017-Oct-18 08:31N 35°01' E 139°50'0 0.0
2017-Oct-18 08:00N 35°01' E 139°50'0 0.0
2017-Oct-18 07:31N 35°01' E 139°50'3 6.0
2017-Oct-18 07:00N 34°60' E 139°47'  
2017-Oct-14 10:43N 34°53' E 139°48'313.2
2017-Oct-14 10:30N 34°55' E 139°46'612.7
2017-Oct-14 10:00N 35°01' E 139°43'612.4
2017-Oct-14 09:30N 35°07' E 139°45'612.8
2017-Oct-14 09:00N 35°13' E 139°46'612.1
2017-Oct-14 08:30N 35°18' E 139°44'611.7
2017-Oct-14 08:00N 35°24' E 139°43'612.5
2017-Oct-14 07:30N 35°29' E 139°48'7 0.8
2017-Oct-13 22:39N 35°36' E 139°50'1 7.0
2017-Oct-13 22:30N 35°36' E 139°51'0 0.2
2017-Oct-13 21:45N 35°35' E 139°51'0 0.0
2017-Oct-13 21:30N 35°35' E 139°51'0 0.0
2017-Oct-13 20:58N 35°35' E 139°51'0 0.0
2017-Oct-13 20:30N 35°35' E 139°51'0 0.0
2017-Oct-13 19:55N 35°35' E 139°51'0 0.0
2017-Oct-13 19:29N 35°35' E 139°51'0 0.0
2017-Oct-13 19:00N 35°35' E 139°51'0 0.0
2017-Oct-13 18:29N 35°35' E 139°51'0 0.0
2017-Oct-13 17:55N 35°35' E 139°51'0 0.0
2017-Oct-13 17:30N 35°35' E 139°51'0 0.1
2017-Oct-13 17:00N 35°35' E 139°51'0 0.1
2017-Oct-13 16:30N 35°35' E 139°51'0 0.1
2017-Oct-13 16:00N 35°35' E 139°51'0 0.0
2017-Oct-13 15:30N 35°35' E 139°51'0 0.0
2017-Oct-13 15:00N 35°35' E 139°51'0 0.0
2017-Oct-13 14:30N 35°35' E 139°51'0 0.0
2017-Oct-13 14:00N 35°35' E 139°51'0 0.0
2017-Oct-13 13:30N 35°35' E 139°51'0 0.0
2017-Oct-13 13:00N 35°35' E 139°51'0 0.0
2017-Oct-13 12:30N 35°35' E 139°51'0 0.0
2017-Oct-13 11:57N 35°35' E 139°51'0 0.0
2017-Oct-13 11:25N 35°35' E 139°51'0 0.0
2017-Oct-13 10:50N 35°35' E 139°51'0 0.0
2017-Oct-13 10:23N 35°35' E 139°51'0 0.0
2017-Oct-13 10:00N 35°35' E 139°51'0 0.0
2017-Oct-13 09:29N 35°35' E 139°51'0 0.0
2017-Oct-13 09:00N 35°35' E 139°51'0 0.0
2017-Oct-13 08:30N 35°35' E 139°51'0 0.0
2017-Oct-13 06:47N 35°35' E 139°51'1 3.6
2017-Oct-13 06:28N 35°35' E 139°52'5 9.9
2017-Oct-13 06:00N 35°30' E 139°52'510.0
2017-Oct-13 05:29N 35°26' E 139°48'5 9.9
2017-Oct-13 05:00N 35°22' E 139°45'4 8.9
2017-Oct-13 04:30N 35°18' E 139°45'510.0
2017-Oct-13 04:00N 35°13' E 139°47'510.1
2017-Oct-13 03:30N 35°08' E 139°45'510.3
2017-Oct-13 03:00N 35°06' E 139°39'510.0
2017-Oct-13 02:30N 35°03' E 139°34'  
2017-Oct-10 04:35N 34°06' E 135°02'410.6
2017-Oct-10 04:11N 34°10' E 135°02'210.3
2017-Oct-10 04:00N 34°12' E 135°02'710.3
2017-Oct-10 03:22N 34°18' E 135°04'810.3
2017-Oct-10 02:36N 34°25' E 135°08'110.3
2017-Oct-10 02:30N 34°26' E 135°09'510.5
2017-Oct-10 02:00N 34°30' E 135°14'  

Dump ship's entire track history